createdAt,value
2023-12-11T00:00:46.616Z,-0.35
2023-12-11T00:03:14.431Z,-0.36
2023-12-11T00:05:42.827Z,-0.45
2023-12-11T00:08:10.346Z,-0.56
2023-12-11T00:10:38.767Z,-0.74
2023-12-11T00:13:06.094Z,-0.62
2023-12-11T00:15:33.471Z,-0.43
2023-12-11T00:18:01.639Z,-0.64
2023-12-11T00:20:29.145Z,-0.65
2023-12-11T00:22:56.398Z,-0.75
2023-12-11T00:25:23.961Z,-0.85
2023-12-11T00:27:52.385Z,-0.80
2023-12-11T00:30:19.660Z,-0.65
2023-12-11T00:32:47.606Z,-0.55
2023-12-11T00:35:15.957Z,-0.40
2023-12-11T00:37:43.190Z,-0.40
2023-12-11T00:40:10.935Z,-0.37
2023-12-11T00:42:38.246Z,-0.37
2023-12-11T00:45:06.859Z,-0.40
2023-12-11T00:47:34.812Z,-0.29
2023-12-11T00:50:05.412Z,-0.64
2023-12-11T00:52:34.685Z,-0.61
2023-12-11T00:55:02.101Z,-0.67
2023-12-11T00:57:29.556Z,-0.60
2023-12-11T00:59:57.274Z,-0.40
2023-12-11T01:02:24.618Z,-0.42
2023-12-11T01:04:51.975Z,-0.61
2023-12-11T01:07:19.622Z,-0.53
2023-12-11T01:09:46.909Z,-0.48
2023-12-11T01:12:14.112Z,-0.45
2023-12-11T01:14:41.710Z,-0.61
2023-12-11T01:17:36.693Z,-0.67
2023-12-11T01:19:56.847Z,-0.54
2023-12-11T01:22:24.177Z,-0.43
2023-12-11T01:24:51.472Z,-0.31
2023-12-11T01:27:19.278Z,-0.58
2023-12-11T01:29:46.613Z,-0.57
2023-12-11T01:32:13.892Z,-0.47
2023-12-11T01:34:41.501Z,-0.53
2023-12-11T01:37:09.345Z,-0.61
2023-12-11T01:39:36.613Z,-0.47
2023-12-11T01:42:04.567Z,-0.37
2023-12-11T01:44:31.921Z,-0.62
2023-12-11T01:46:59.311Z,-0.83
2023-12-11T01:49:26.999Z,-0.89
2023-12-11T01:51:54.308Z,-0.93
2023-12-11T01:54:22.786Z,-0.75
2023-12-11T01:56:50.614Z,-0.53
2023-12-11T01:59:19.090Z,-0.78
2023-12-11T02:01:46.513Z,-0.79
2023-12-11T02:04:17.394Z,-0.78
2023-12-11T02:06:45.097Z,-0.73
2023-12-11T02:09:12.625Z,-0.93
2023-12-11T02:11:41.286Z,-0.76
2023-12-11T02:14:09.337Z,-1.05
2023-12-11T02:16:36.784Z,-1.03
2023-12-11T02:19:04.504Z,-1.08
2023-12-11T02:21:31.895Z,-1.14
2023-12-11T02:24:08.777Z,-0.93
2023-12-11T02:26:36.382Z,-1.25
2023-12-11T02:29:03.925Z,-1.18
2023-12-11T02:31:31.214Z,-1.29
2023-12-11T02:33:58.950Z,-1.25
2023-12-11T02:36:39.425Z,-1.32
2023-12-11T02:39:07.022Z,-1.16
2023-12-11T02:41:34.395Z,-1.34
2023-12-11T02:44:02.778Z,-1.24
2023-12-11T02:46:30.892Z,-1.14
2023-12-11T02:48:58.285Z,-1.23
2023-12-11T02:51:26.162Z,-1.01
2023-12-11T02:53:54.250Z,-1.14
2023-12-11T02:56:22.097Z,-1.03
2023-12-11T02:58:49.359Z,-1.12
2023-12-11T03:01:17.689Z,-1.05
2023-12-11T03:03:45.630Z,-1.18
2023-12-11T03:06:20.544Z,-1.09
2023-12-11T03:08:48.180Z,-1.03
2023-12-11T03:11:15.937Z,-1.10
2023-12-11T03:13:43.268Z,-1.10
2023-12-11T03:16:14.798Z,-0.99
2023-12-11T03:18:42.833Z,-0.87
2023-12-11T03:21:10.579Z,-1.06
2023-12-11T03:23:39.778Z,-0.97
2023-12-11T03:26:08.544Z,-1.08
2023-12-11T03:28:36.161Z,-1.11
2023-12-11T03:31:04.130Z,-1.01
2023-12-11T03:33:31.580Z,-0.96
2023-12-11T03:35:59.288Z,-1.01
2023-12-11T03:38:26.529Z,-1.10
2023-12-11T03:40:56.335Z,-0.82
2023-12-11T03:43:24.580Z,-0.77
2023-12-11T03:45:56.075Z,-0.96
2023-12-11T03:48:23.926Z,-0.88
2023-12-11T03:50:51.847Z,-0.57
2023-12-11T03:53:19.077Z,-0.63
2023-12-11T03:55:46.681Z,-0.88
2023-12-11T03:58:14.958Z,-0.83
2023-12-11T04:00:42.891Z,-0.72
2023-12-11T04:03:12.602Z,-0.75
2023-12-11T04:05:40.591Z,-0.73
2023-12-11T04:08:08.068Z,-0.81
2023-12-11T04:10:36.145Z,-0.76
2023-12-11T04:13:04.366Z,-0.68
2023-12-11T04:15:31.770Z,-0.72
2023-12-11T04:18:01.064Z,-0.60
2023-12-11T04:20:28.349Z,-0.76
2023-12-11T04:22:55.623Z,-0.72
2023-12-11T04:25:23.184Z,-0.73
2023-12-11T04:27:50.417Z,-0.77
2023-12-11T04:30:17.647Z,-0.79
2023-12-11T04:32:45.900Z,-0.71
2023-12-11T04:35:13.880Z,-0.72
2023-12-11T04:37:43.242Z,-0.78
2023-12-11T04:40:11.913Z,-0.75
2023-12-11T04:42:52.590Z,-0.73
2023-12-11T04:45:20.159Z,-0.68
2023-12-11T04:47:50.425Z,-0.62
2023-12-11T04:50:18.025Z,-0.67
2023-12-11T04:52:48.956Z,-0.64
2023-12-11T04:55:17.165Z,-0.75
2023-12-11T04:57:44.488Z,-0.68
2023-12-11T05:00:16.451Z,-0.76
2023-12-11T05:02:44.878Z,-0.71
2023-12-11T05:05:12.668Z,-0.73
2023-12-11T05:07:40.469Z,-0.64
2023-12-11T05:10:08.581Z,-0.52
2023-12-11T05:12:36.235Z,-0.56
2023-12-11T05:15:05.050Z,-0.49
2023-12-11T05:17:46.966Z,-0.47
2023-12-11T05:20:17.597Z,-0.56
2023-12-11T05:22:44.927Z,-0.57
2023-12-11T05:25:13.225Z,-0.47
2023-12-11T05:27:40.919Z,-0.46
2023-12-11T05:30:09.195Z,-0.50
2023-12-11T05:32:37.029Z,-0.36
2023-12-11T05:35:05.156Z,-0.35
2023-12-11T05:37:36.767Z,-0.35
2023-12-11T05:40:21.458Z,-0.31
2023-12-11T05:42:52.710Z,-0.26
2023-12-11T05:45:20.082Z,-0.26
2023-12-11T05:47:47.791Z,-0.31
2023-12-11T05:50:16.225Z,-0.30
2023-12-11T05:52:45.488Z,-0.32
2023-12-11T05:55:13.765Z,-0.29
2023-12-11T05:57:44.986Z,-0.17
2023-12-11T06:00:14.292Z,-0.30
2023-12-11T06:02:42.392Z,-0.24
2023-12-11T06:05:10.798Z,-0.28
2023-12-11T06:07:38.382Z,-0.11
2023-12-11T06:10:07.136Z,-0.05
2023-12-11T06:12:35.334Z,-0.05
2023-12-11T06:15:02.977Z,-0.08
2023-12-11T06:17:30.939Z,0.01
2023-12-11T06:20:01.055Z,0.06
2023-12-11T06:22:28.753Z,0.14
2023-12-11T06:25:08.366Z,0.09
2023-12-11T06:27:35.768Z,0.03
2023-12-11T06:30:04.098Z,-0.02
2023-12-11T06:32:31.475Z,0.11
2023-12-11T06:34:59.298Z,0.12
2023-12-11T06:37:27.168Z,0.10
2023-12-11T06:39:55.932Z,0.16
2023-12-11T06:42:23.743Z,0.12
2023-12-11T06:44:51.576Z,0.29
2023-12-11T06:47:19.384Z,0.23
2023-12-11T06:49:48.304Z,0.16
2023-12-11T06:52:17.210Z,0.25
2023-12-11T06:54:44.623Z,0.20
2023-12-11T06:57:12.744Z,0.31
2023-12-11T06:59:40.379Z,0.34
2023-12-11T07:02:08.436Z,0.29
2023-12-11T07:04:35.986Z,0.23
2023-12-11T07:07:04.914Z,0.20
2023-12-11T07:09:33.727Z,0.32
2023-12-11T07:12:05.483Z,0.30
2023-12-11T07:14:33.184Z,0.37
2023-12-11T07:17:00.769Z,0.51
2023-12-11T07:19:28.222Z,0.44
2023-12-11T07:21:58.126Z,0.46
2023-12-11T07:24:25.484Z,0.65
2023-12-11T07:26:53.246Z,0.65
2023-12-11T07:29:20.824Z,0.71
2023-12-11T07:31:49.077Z,0.91
2023-12-11T07:34:16.481Z,1.03
2023-12-11T07:36:47.548Z,0.96
2023-12-11T07:39:15.666Z,1.16
2023-12-11T07:41:43.925Z,1.36
2023-12-11T07:44:11.519Z,1.22
2023-12-11T07:46:42.272Z,1.29
2023-12-11T07:49:13.905Z,1.38
2023-12-11T07:51:41.660Z,1.26
2023-12-11T07:54:10.903Z,0.91
2023-12-11T07:56:38.490Z,0.90
2023-12-11T07:59:07.901Z,0.80
2023-12-11T08:01:36.681Z,0.73
2023-12-11T08:04:05.096Z,0.66
2023-12-11T08:06:32.698Z,0.73
2023-12-11T08:09:04.322Z,0.91
2023-12-11T08:11:32.761Z,0.89
2023-12-11T08:14:00.213Z,0.86
2023-12-11T08:16:28.662Z,0.86
2023-12-11T08:18:56.541Z,0.82
2023-12-11T08:21:24.371Z,0.93
2023-12-11T08:24:08.910Z,1.13
2023-12-11T08:26:38.990Z,1.46
2023-12-11T08:29:07.202Z,1.52
2023-12-11T08:31:37.281Z,1.60
2023-12-11T08:34:05.251Z,1.74
2023-12-11T08:36:33.214Z,2.04
2023-12-11T08:39:01.245Z,2.12
2023-12-11T08:41:28.835Z,1.98
2023-12-11T08:43:57.225Z,1.96
2023-12-11T08:46:25.760Z,1.81
2023-12-11T08:48:53.618Z,1.94
2023-12-11T08:51:21.166Z,2.24
2023-12-11T08:53:49.572Z,2.24
2023-12-11T08:56:28.180Z,1.92
2023-12-11T08:59:04.874Z,1.89
2023-12-11T09:01:36.025Z,1.76
2023-12-11T09:04:04.682Z,1.85
2023-12-11T09:06:32.510Z,1.80
2023-12-11T09:09:00.278Z,1.88
2023-12-11T09:11:27.625Z,1.76
2023-12-11T09:13:55.891Z,1.77
2023-12-11T09:16:25.188Z,2.05
2023-12-11T09:22:36.154Z,2.45
2023-12-11T09:32:11.405Z,2.03
2023-12-11T09:34:43.982Z,1.90
2023-12-11T09:37:13.776Z,1.85
2023-12-11T09:39:41.960Z,1.87
2023-12-11T09:49:05.866Z,1.86
2023-12-11T09:54:52.179Z,1.82
2023-12-11T09:57:20.687Z,2.28
2023-12-11T09:59:48.756Z,2.69
2023-12-11T10:05:47.995Z,2.65
2023-12-11T10:08:19.035Z,2.73
2023-12-11T10:10:47.615Z,2.18
2023-12-11T10:13:25.778Z,2.37
2023-12-11T10:15:54.137Z,2.48
2023-12-11T10:18:27.531Z,2.53
2023-12-11T10:20:58.694Z,2.32
2023-12-11T10:23:27.671Z,2.58
2023-12-11T10:26:09.679Z,2.49
2023-12-11T10:28:37.759Z,2.55
2023-12-11T10:32:02.688Z,2.80
2023-12-11T10:38:22.101Z,2.77
2023-12-11T10:41:01.993Z,2.95
2023-12-11T10:44:02.018Z,2.86
2023-12-11T10:50:37.149Z,2.62
2023-12-11T10:53:20.601Z,2.67
2023-12-11T10:55:52.904Z,2.67
2023-12-11T10:58:39.743Z,2.81
2023-12-11T11:01:13.702Z,3.09
2023-12-11T11:03:42.398Z,2.88
2023-12-11T11:06:13.762Z,2.92
2023-12-11T11:08:56.477Z,3.22
2023-12-11T11:11:30.580Z,3.36
2023-12-11T11:14:25.335Z,3.21
2023-12-11T11:16:54.814Z,3.35
2023-12-11T11:19:23.115Z,3.31
2023-12-11T11:22:13.474Z,3.39
2023-12-11T11:24:48.034Z,3.78
2023-12-11T11:27:44.999Z,3.73
2023-12-11T11:30:42.786Z,3.81
2023-12-11T11:33:11.869Z,3.61
2023-12-11T11:35:46.834Z,3.55
2023-12-11T11:38:22.323Z,3.77
2023-12-11T11:40:52.915Z,3.76
2023-12-11T11:46:48.749Z,3.74
2023-12-11T11:52:43.486Z,3.23
2023-12-11T11:55:22.338Z,3.39
2023-12-11T11:57:50.119Z,3.60
2023-12-11T12:00:25.309Z,3.61
2023-12-11T12:03:07.951Z,3.46
2023-12-11T12:05:39.991Z,3.55
2023-12-11T12:08:09.358Z,3.38
2023-12-11T12:10:37.322Z,3.35
2023-12-11T12:13:06.623Z,3.29
2023-12-11T12:15:46.344Z,3.47
2023-12-11T12:18:17.703Z,3.67
2023-12-11T12:21:01.046Z,3.77
2023-12-11T12:23:31.741Z,3.90
2023-12-11T12:26:00.807Z,4.12
2023-12-11T12:28:31.022Z,4.27
2023-12-11T12:30:59.043Z,4.24
2023-12-11T12:33:28.571Z,4.43
2023-12-11T12:35:56.647Z,4.34
2023-12-11T12:38:24.945Z,4.28
2023-12-11T12:40:55.148Z,4.41
2023-12-11T12:43:25.613Z,4.17
2023-12-11T12:46:00.878Z,4.38
2023-12-11T12:48:31.743Z,4.36
2023-12-11T12:51:06.648Z,4.65
2023-12-11T12:53:34.171Z,4.90
2023-12-11T12:56:02.204Z,4.79
2023-12-11T12:58:30.564Z,4.36
2023-12-11T13:01:01.102Z,4.63
2023-12-11T13:03:29.091Z,4.61
2023-12-11T13:05:59.483Z,4.36
2023-12-11T13:08:30.299Z,4.17
2023-12-11T13:10:58.397Z,3.74
2023-12-11T13:13:28.248Z,3.50
2023-12-11T13:15:57.941Z,3.56
2023-12-11T13:18:32.156Z,3.59
2023-12-11T13:21:00.554Z,3.55
2023-12-11T13:23:29.891Z,3.59
2023-12-11T13:25:58.327Z,3.65
2023-12-11T13:28:25.776Z,3.59
2023-12-11T13:30:54.383Z,3.68
2023-12-11T13:36:31.496Z,4.13
2023-12-11T13:39:00.203Z,4.14
2023-12-11T13:45:13.059Z,4.27
2023-12-11T13:47:41.053Z,4.02
2023-12-11T13:50:10.887Z,3.99
2023-12-11T13:52:40.885Z,3.80
2023-12-11T13:55:08.855Z,3.59
2023-12-11T13:57:37.114Z,3.55
2023-12-11T14:00:05.694Z,3.50
2023-12-11T14:02:59.437Z,3.54
2023-12-11T14:05:21.832Z,3.60
2023-12-11T14:07:50.624Z,3.56
2023-12-11T14:10:18.449Z,3.65
2023-12-11T14:12:46.553Z,3.64
2023-12-11T14:18:35.430Z,3.39
2023-12-11T14:21:04.947Z,3.41
2023-12-11T14:23:33.909Z,3.38
2023-12-11T14:26:01.816Z,3.42
2023-12-11T14:28:32.271Z,3.18
2023-12-11T14:31:00.668Z,3.22
2023-12-11T14:33:32.423Z,3.41
2023-12-11T14:36:14.931Z,3.06
2023-12-11T14:38:59.910Z,3.08
2023-12-11T14:45:24.266Z,2.89
2023-12-11T14:51:40.763Z,3.08
2023-12-11T14:54:09.376Z,2.93
2023-12-11T14:56:40.381Z,3.01
2023-12-11T14:59:08.547Z,2.92
2023-12-11T15:01:38.204Z,2.68
2023-12-11T15:04:08.402Z,2.50
2023-12-11T15:06:40.784Z,2.48
2023-12-11T15:09:08.697Z,2.56
2023-12-11T15:11:36.562Z,2.46
2023-12-11T15:14:14.221Z,2.49
2023-12-11T15:16:46.087Z,2.47
2023-12-11T15:19:14.610Z,2.57
2023-12-11T15:25:13.505Z,2.65
2023-12-11T15:27:45.717Z,2.87
2023-12-11T15:30:20.285Z,2.69
2023-12-11T15:32:55.395Z,2.57
2023-12-11T15:35:25.199Z,2.68
2023-12-11T15:37:54.191Z,2.66
2023-12-11T15:40:28.521Z,2.53
2023-12-11T15:43:02.478Z,2.55
2023-12-11T15:45:29.926Z,2.67
2023-12-11T15:48:03.785Z,2.70
2023-12-11T15:50:34.322Z,2.60
2023-12-11T15:53:02.123Z,2.65
2023-12-11T15:55:29.482Z,2.56
2023-12-11T15:57:57.924Z,2.63
2023-12-11T16:00:26.005Z,2.54
2023-12-11T16:02:56.304Z,2.62
2023-12-11T16:05:24.027Z,2.85
2023-12-11T16:07:51.378Z,2.83
2023-12-11T16:10:19.170Z,3.00
2023-12-11T16:16:32.792Z,2.67
2023-12-11T16:19:00.974Z,2.71
2023-12-11T16:21:28.457Z,2.79
2023-12-11T16:23:58.640Z,2.57
2023-12-11T16:26:28.601Z,2.61
2023-12-11T16:28:58.179Z,2.48
2023-12-11T16:31:26.023Z,2.50
2023-12-11T16:33:54.207Z,2.77
2023-12-11T16:36:21.682Z,2.94
2023-12-11T16:42:21.175Z,2.47
2023-12-11T16:44:49.318Z,2.45
2023-12-11T16:47:18.716Z,2.52
2023-12-11T16:49:55.849Z,2.57
2023-12-11T16:52:30.808Z,2.60
2023-12-11T16:54:58.407Z,2.50
2023-12-11T16:57:29.427Z,2.84
2023-12-11T16:59:59.240Z,2.72
2023-12-11T17:02:26.605Z,2.62
2023-12-11T17:04:54.567Z,2.49
2023-12-11T17:07:22.321Z,2.33
2023-12-11T17:09:51.877Z,2.43
2023-12-11T17:12:19.787Z,2.31
2023-12-11T17:14:47.384Z,2.34
2023-12-11T17:17:21.513Z,2.66
2023-12-11T17:23:05.622Z,2.42
2023-12-11T17:25:36.709Z,2.64
2023-12-11T17:28:16.034Z,2.53
2023-12-11T17:30:53.887Z,2.61
2023-12-11T17:33:22.083Z,2.49
2023-12-11T17:35:58.085Z,2.41
2023-12-11T17:38:27.249Z,2.42
2023-12-11T17:40:56.808Z,2.55
2023-12-11T17:43:29.056Z,2.65
2023-12-11T17:45:57.121Z,2.47
2023-12-11T17:48:31.392Z,2.45
2023-12-11T17:51:00.352Z,2.36
2023-12-11T17:53:29.249Z,2.40
2023-12-11T17:55:56.972Z,2.43
2023-12-11T17:58:25.271Z,2.38
2023-12-11T18:00:53.129Z,2.36
2023-12-11T18:03:22.186Z,2.33
2023-12-11T18:05:50.597Z,2.41
2023-12-11T18:08:18.387Z,2.33
2023-12-11T18:10:48.187Z,2.26
2023-12-11T18:13:16.042Z,2.45
2023-12-11T18:15:43.956Z,2.51
2023-12-11T18:18:13.782Z,2.64
2023-12-11T18:20:41.550Z,2.41
2023-12-11T18:23:10.044Z,2.41
2023-12-11T18:25:40.127Z,2.24
2023-12-11T18:28:08.290Z,2.25
2023-12-11T18:30:36.285Z,2.30
2023-12-11T18:33:06.176Z,2.25
2023-12-11T18:35:34.637Z,2.30
2023-12-11T18:38:02.665Z,2.35
2023-12-11T18:40:31.461Z,2.18
2023-12-11T18:43:01.364Z,2.14
2023-12-11T18:45:29.133Z,2.05
2023-12-11T18:48:00.316Z,1.97
2023-12-11T18:50:28.367Z,2.00
2023-12-11T18:52:58.146Z,2.14
2023-12-11T18:55:30.977Z,2.01
2023-12-11T18:57:59.804Z,1.94
2023-12-11T19:00:27.956Z,2.04
2023-12-11T19:02:57.963Z,2.04
2023-12-11T19:05:26.274Z,2.11
2023-12-11T19:07:56.404Z,2.13
2023-12-11T19:10:26.219Z,2.02
2023-12-11T19:13:13.987Z,2.03
2023-12-11T19:15:44.976Z,2.13
2023-12-11T19:18:14.202Z,2.25
2023-12-11T19:20:42.600Z,2.17
2023-12-11T19:23:23.363Z,2.03
2023-12-11T19:28:55.225Z,2.00
2023-12-11T19:31:24.823Z,1.90
2023-12-11T19:33:53.205Z,1.86
2023-12-11T19:36:21.346Z,1.79
2023-12-11T19:38:54.547Z,1.74
2023-12-11T19:41:22.995Z,1.71
2023-12-11T19:44:03.496Z,1.77
2023-12-11T19:46:52.895Z,1.78
2023-12-11T19:49:21.011Z,1.80
2023-12-11T19:51:49.103Z,1.74
2023-12-11T19:54:23.238Z,1.80
2023-12-11T19:56:56.029Z,1.92
2023-12-11T20:02:46.769Z,2.02
2023-12-11T20:05:14.899Z,2.07
2023-12-11T20:07:42.820Z,1.90
2023-12-11T20:10:11.971Z,2.06
2023-12-11T20:12:40.188Z,1.98
2023-12-11T20:15:12.178Z,1.99
2023-12-11T20:17:40.668Z,1.99
2023-12-11T20:20:09.303Z,1.84
2023-12-11T20:22:37.232Z,1.69
2023-12-11T20:25:06.879Z,1.61
2023-12-11T20:27:44.589Z,1.79
2023-12-11T20:30:14.745Z,1.60
2023-12-11T20:32:50.941Z,1.75
2023-12-11T20:45:53.271Z,1.74
2023-12-11T20:48:22.609Z,1.92
2023-12-11T20:53:53.628Z,1.91
2023-12-11T20:59:53.609Z,1.81
2023-12-11T21:02:21.818Z,2.12
2023-12-11T21:04:50.433Z,2.14
2023-12-11T21:07:18.275Z,2.17
2023-12-11T21:09:45.988Z,1.99
2023-12-11T21:12:13.717Z,2.07
2023-12-11T21:14:41.492Z,2.03
2023-12-11T21:17:10.957Z,1.98
2023-12-11T21:19:38.805Z,1.98
2023-12-11T21:22:06.672Z,1.82
2023-12-11T21:24:34.117Z,1.78
2023-12-11T21:27:03.996Z,1.73
2023-12-11T21:29:31.934Z,1.70
2023-12-11T21:32:01.294Z,1.78
2023-12-11T21:34:30.007Z,2.01
2023-12-11T21:36:57.892Z,1.99
2023-12-11T21:39:25.411Z,1.77
2023-12-11T21:41:52.653Z,1.79
2023-12-11T21:44:22.198Z,1.79
2023-12-11T21:46:52.430Z,1.88
2023-12-11T21:49:22.241Z,1.88
2023-12-11T21:51:51.001Z,2.21
2023-12-11T21:54:22.819Z,2.02
2023-12-11T21:56:50.972Z,1.91
2023-12-11T21:59:18.337Z,1.92
2023-12-11T22:01:47.475Z,1.97
2023-12-11T22:04:15.706Z,2.04
2023-12-11T22:06:43.161Z,1.83
2023-12-11T22:09:11.102Z,2.01
2023-12-11T22:11:38.639Z,2.02
2023-12-11T22:14:06.797Z,2.10
2023-12-11T22:16:36.963Z,2.04
2023-12-11T22:19:06.584Z,2.09
2023-12-11T22:21:33.880Z,2.10
2023-12-11T22:24:06.346Z,2.15
2023-12-11T22:26:40.666Z,2.21
2023-12-11T22:29:08.490Z,2.21
2023-12-11T22:31:41.612Z,2.19
2023-12-11T22:34:09.619Z,2.23
2023-12-11T22:36:38.159Z,2.23
2023-12-11T22:39:05.917Z,2.19
2023-12-11T22:41:36.615Z,2.20
2023-12-11T22:44:07.282Z,2.23
2023-12-11T22:46:35.059Z,2.23
2023-12-11T22:49:02.705Z,2.23
2023-12-11T22:51:31.444Z,2.21
2023-12-11T22:53:59.950Z,2.20
2023-12-11T22:56:30.501Z,2.20
2023-12-11T22:58:58.241Z,2.14
2023-12-11T23:01:25.575Z,2.00
2023-12-11T23:03:53.440Z,2.04
2023-12-11T23:06:21.080Z,2.05
2023-12-11T23:08:48.813Z,1.88
2023-12-11T23:11:16.644Z,1.91
2023-12-11T23:13:44.198Z,1.89
2023-12-11T23:16:12.308Z,1.83
2023-12-11T23:18:39.740Z,1.86
2023-12-11T23:21:16.767Z,1.89
2023-12-11T23:23:44.653Z,1.90
2023-12-11T23:26:12.486Z,1.90
2023-12-11T23:28:40.547Z,1.89
2023-12-11T23:31:10.367Z,1.96
2023-12-11T23:33:39.627Z,1.76
2023-12-11T23:36:07.623Z,1.80
2023-12-11T23:38:35.323Z,1.81
2023-12-11T23:41:02.835Z,1.74
2023-12-11T23:43:30.154Z,1.79
2023-12-11T23:45:57.440Z,1.85
2023-12-11T23:48:25.911Z,1.83
2023-12-11T23:50:53.393Z,1.78
2023-12-11T23:53:21.164Z,1.80
2023-12-11T23:55:48.661Z,1.59
2023-12-11T23:58:16.077Z,1.69
